Prior Lake, MN

5:38 PM CDT on September 01, 2015 (GMT -0500)
Credit River | | Change Station
CLOSE
Current Station
Personal Weather Station
Location: Credit River, MN
Elevation: 935 ft
Nearby Weather Stations

Elev 935 ft 44.70 °N, 93.39 °W | Updated 0 second ago

Clear
Clear
82.6 °F
Feels Like 97 °F
N
0.0
Wind Variable Wind from SSE
Gusts 2.0 mph

Today
High -- | Low -- °F
--% Chance of Precip.
Yesterday
High -- | Low -- °F
Precip. -- in
6:35 AM 7:50 PM
Waning Gibbous, 86% visible
Pressure 29.86 in
Visibility 8.0 miles
Clouds Clear
Heat Index 97 °F
Dew Point 82.6 °F
Humidity 100%
Rainfall 0.00 in
Snow Depth Not available.
UV 0.0 out of 12
Pollen 9.70 out of 12
Air Quality Not available.
Flu Activity Not available.
METAR KFCM 012153Z VRB03KT 8SM CLR 29/23 A2988 RMK AO2 SLP111 T02940233
Pressure 29.86 in
Visibility 8.0 miles
Clouds Clear
Heat Index 97 °F
Dew Point 82.6 °F
Humidity 100%
Rainfall 0.00 in
Snow Depth Not available.
UV 0.0 out of 12
Pollen 9.70 out of 12
Air Quality Not available.
Flu Activity Not available.
METAR KFCM 012153Z VRB03KT 8SM CLR 29/23 A2988 RMK AO2 SLP111 T02940233

10-Day Weather Forecast

×

Almanac

Astronomy

Sep. 01, 2015 Rise Set
Actual Time
Civil Twilight
Nautical Twilight
Astronomical Twilight
Moon
Length of Visible Light
Length of Day
Tomorrow will be .
, % of the Moon is Illuminated

Today's Extremes

State Highs State Lows

Community

WunderPhotos

Upload Photos

1,851,634 photos uploaded!

WunderBlogs® & News

Nearby

Air Quality

  Air Quality AQ Index Pollutant
Not available.

Snow Depth

Station Depth Elevation

Earthquake Activity

City Distance Mag. Time & Date
Minimum magnitude displayed is 2.5.

Coastal Water Temperatures

Place Temperature

Stations

Nearby Weather Stations

Station Location Temp. Windchill Dew Point Humidity Wind Precip. Elev Updated Type